Etusivu
METAR-TAF:

METAR-TAF

Lentoasemat :

Roskilde, Tanska

Leveyspiiri: 55-35N, Pituuspiiri: 012-08E, korkeus merenpinnasta: 44 m

Tämänhetkinen sää

Tämä raportti tehtiin 18 minuuttia sitten, kello 18.20 UTC
Tuuli 1 kn pohjoisesta
Lämpötila 13°C
Kosteus 88%
Ilmanpaine 1022 hPa
Näkyvyys 10 km tai enemmän

METAR: EKRK 221820Z AUTO 35001KT 9999NDV BKN038/// OVC055/// 13/11 Q1022

Aika: 20:38 (18:38 UTC)

Sääennuste

Tämä raportti tehtiin 1 tunti ja 17 minuuttia sitten, kello 17.21 UTC
Ennuste voimassa 22. päivästä klo 18 UTC - 23. päivään klo 03 UTC
Tuuli 5 kn luoteesta
Näkyvyys 10 km tai enemmän
Hajonneita pilviä 2000 ft:n korkeudessa
Ajoittain
22. päivästä klo 18 UTC - 22. päivään klo 21 UTC
Hajonneita pilviä 1200 ft:n korkeudessa
Ajoittain
22. päivästä klo 21 UTC - 23. päivään klo 03 UTC
Näkyvyys: 3000 m
Hajonneita pilviä 400 ft:n korkeudessa
utua

TAF: EKRK 221721Z 2218/2303 31005KT 9999 BKN020 TEMPO 2218/2221 BKN012 TEMPO 2221/2303 3000 BR BKN004

Säähavainnot ja -ennusteet yli 4000 lentoasemalta (METAR- ja TAF-raportit).

Käytössä olevat sääasemat on merkitty karttaan keltaisilla ja punaisilla pisteillä.

Aseta hiiri pisteen päälle nähdäksesi sääaseman nimen.

Klikkaa sitten nähdäksesi säähavainnot ja -ennusteet.

Kartan vaihtaminen: klikkaa mustalla rastilla varustettuja vihreitä pisteitä, niin voit zoomata sisään; viivalla varustettua vihreää pistettä, niin voit zoomata ulos tai vihreitä nuolia, niin pääset viereisille kartoille.


METAR-TAF: